Current Conditions
Clear
Conditions



Pressure
1020.92 (hPa) - 30.15 (inHG)
Visibility

10.0 (km) - 6.2 (miles)
   Temperature
3  °C
37°F
0  °C
Dewpoint
81  %
 Humidity
   Wind Speed
16  km/h
9  kts
10  mph
4.5  m/s
   Wind Direction
 290°
West North
West
   Airport Data
LHPR
Location Győr-Pér International Airport 10 km (6.22 mi)
Metar :LHPR 150315Z AUTO 29009KT CAVOK 03/00 Q1021
Thu 15th April 05:15 am
   Raw Metar Info
Raw METAR is the most common format in the world for the transmission of observational weather data. It is highly standardized through the International Civil Aviation Organization (ICAO), which allows it to be understood throughout most of the world.
   API Info
Data Provided by
https://www.checkwx.com/weather/LHPR
   © Info
CSS/SVG/PHP scripts were developed by weather34.com for use in the weather34 template © 2015-2021

Guide Info provided by Metar-Wikipedia